Milane, Texas
Current Conditions -  °F | °C
As of 3:56 AM on Saturday 22 Nov 2014 (Local Time) from KAQV Reporting Station
Few Clouds Few Clouds  
Wind Chill: 57°   Ceiling: Unl
Heat Index: 57°   Visibility: 10mi
Dew Point: 51°   Wind: 3mph
Humidity: 81%   Direction: NA
Pressure: 30.16"   Gusts: NA
Location:  31.4918°N, 93.8786°W
Report Text: KAQV 220956Z AUTO VRB03KT 10SM FEW100 14/11 A3016 RMK AO2 SLP213 T01390106
Loading
Personal Weather Stations






























Interactive Weather Map New forecast layout! Learn more

10-Day Weather Forecast

Advertisements
Track Severe Weather on mobile